sensor_id;sensor_type;location;lat;lon;timestamp;pressure;altitude;pressure_sealevel;temperature;humidity
61963;BME280;47927;42.646;23.096;2023-01-28T00:00:04;91373.50;;;2.84;55.80
61963;BME280;47927;42.646;23.096;2023-01-28T00:02:32;91371.78;;;3.20;55.18
61963;BME280;47927;42.646;23.096;2023-01-28T00:04:57;91367.03;;;3.38;54.59
61963;BME280;47927;42.646;23.096;2023-01-28T00:07:23;91348.91;;;2.27;55.88
61963;BME280;47927;42.646;23.096;2023-01-28T00:09:49;91348.13;;;1.98;57.78
61963;BME280;47927;42.646;23.096;2023-01-28T00:12:14;91318.59;;;1.40;58.61
61963;BME280;47927;42.646;23.096;2023-01-28T00:14:40;91380.59;;;1.91;58.67
61963;BME280;47927;42.646;23.096;2023-01-28T00:17:05;91374.41;;;1.79;58.57
61963;BME280;47927;42.646;23.096;2023-01-28T00:19:31;91381.47;;;1.70;59.50
61963;BME280;47927;42.646;23.096;2023-01-28T00:21:56;91386.09;;;2.05;58.44
61963;BME280;47927;42.646;23.096;2023-01-28T00:24:22;91384.44;;;1.72;59.02
61963;BME280;47927;42.646;23.096;2023-01-28T00:26:47;91386.47;;;1.91;58.92
61963;BME280;47927;42.646;23.096;2023-01-28T00:29:13;91385.84;;;1.45;60.01
61963;BME280;47927;42.646;23.096;2023-01-28T00:31:39;91387.88;;;1.27;60.45
61963;BME280;47927;42.646;23.096;2023-01-28T00:34:05;91392.16;;;1.35;60.35
61963;BME280;47927;42.646;23.096;2023-01-28T00:36:31;91387.47;;;1.50;60.06
61963;BME280;47927;42.646;23.096;2023-01-28T00:38:58;91389.56;;;1.72;59.56
61963;BME280;47927;42.646;23.096;2023-01-28T00:41:26;91395.66;;;1.92;59.28
61963;BME280;47927;42.646;23.096;2023-01-28T00:43:53;91392.50;;;1.34;60.05
61963;BME280;47927;42.646;23.096;2023-01-28T00:46:20;91391.00;;;1.45;60.24
61963;BME280;47927;42.646;23.096;2023-01-28T00:48:47;91400.81;;;1.80;59.64
61963;BME280;47927;42.646;23.096;2023-01-28T00:51:14;91396.00;;;1.66;59.64
61963;BME280;47927;42.646;23.096;2023-01-28T00:53:41;91384.13;;;1.25;60.37
61963;BME280;47927;42.646;23.096;2023-01-28T00:56:09;91400.59;;;1.60;60.06
61963;BME280;47927;42.646;23.096;2023-01-28T00:58:35;91401.13;;;1.66;60.08
61963;BME280;47927;42.646;23.096;2023-01-28T01:03:41;91397.53;;;1.67;59.76
61963;BME280;47927;42.646;23.096;2023-01-28T01:06:08;91403.75;;;2.19;58.20
61963;BME280;47927;42.646;23.096;2023-01-28T01:08:34;91404.34;;;1.63;59.37
61963;BME280;47927;42.646;23.096;2023-01-28T01:11:01;91404.75;;;1.90;58.81
61963;BME280;47927;42.646;23.096;2023-01-28T01:13:27;91379.31;;;1.60;59.03
61963;BME280;47927;42.646;23.096;2023-01-28T01:18:31;91408.38;;;2.01;58.41
61963;BME280;47927;42.646;23.096;2023-01-28T01:20:59;91408.38;;;2.01;58.35
61963;BME280;47927;42.646;23.096;2023-01-28T01:23:26;91403.97;;;2.14;57.80
61963;BME280;47927;42.646;23.096;2023-01-28T01:25:51;91412.81;;;2.28;57.50
61963;BME280;47927;42.646;23.096;2023-01-28T01:28:17;91409.38;;;2.37;57.29
61963;BME280;47927;42.646;23.096;2023-01-28T01:30:43;91415.47;;;1.92;58.38
61963;BME280;47927;42.646;23.096;2023-01-28T01:33:08;91408.78;;;2.15;57.98
61963;BME280;47927;42.646;23.096;2023-01-28T01:35:34;91404.22;;;2.37;57.39
61963;BME280;47927;42.646;23.096;2023-01-28T01:37:59;91409.50;;;1.88;58.20
61963;BME280;47927;42.646;23.096;2023-01-28T01:40:25;91414.63;;;1.63;59.54
61963;BME280;47927;42.646;23.096;2023-01-28T01:42:54;91410.75;;;1.94;59.07
61963;BME280;47927;42.646;23.096;2023-01-28T01:45:19;91416.31;;;1.96;58.66
61963;BME280;47927;42.646;23.096;2023-01-28T01:47:56;91417.63;;;2.30;57.64
61963;BME280;47927;42.646;23.096;2023-01-28T01:50:31;91414.75;;;1.67;59.23
61963;BME280;47927;42.646;23.096;2023-01-28T01:53:03;91414.81;;;1.95;58.93
61963;BME280;47927;42.646;23.096;2023-01-28T01:55:33;91418.72;;;1.64;59.32
61963;BME280;47927;42.646;23.096;2023-01-28T01:58:02;91416.44;;;1.63;59.21
61963;BME280;47927;42.646;23.096;2023-01-28T02:00:29;91411.22;;;1.47;60.16
61963;BME280;47927;42.646;23.096;2023-01-28T02:02:54;91420.50;;;1.27;60.45
61963;BME280;47927;42.646;23.096;2023-01-28T02:05:21;91397.19;;;1.44;59.78
61963;BME280;47927;42.646;23.096;2023-01-28T02:07:51;91417.94;;;1.27;60.69
61963;BME280;47927;42.646;23.096;2023-01-28T02:10:20;91411.97;;;1.47;60.03
61963;BME280;47927;42.646;23.096;2023-01-28T02:12:52;91427.34;;;1.72;59.12
61963;BME280;47927;42.646;23.096;2023-01-28T02:15:24;91427.03;;;1.73;59.08
61963;BME280;47927;42.646;23.096;2023-01-28T02:17:51;91428.63;;;1.66;59.53
61963;BME280;47927;42.646;23.096;2023-01-28T02:20:49;91428.44;;;1.58;59.31
61963;BME280;47927;42.646;23.096;2023-01-28T02:32:26;91425.94;;;1.87;58.28
61963;BME280;47927;42.646;23.096;2023-01-28T02:34:57;91431.94;;;1.78;58.60
61963;BME280;47927;42.646;23.096;2023-01-28T02:37:30;91428.47;;;2.11;57.69
61963;BME280;47927;42.646;23.096;2023-01-28T02:40:07;91409.91;;;1.90;57.50
61963;BME280;47927;42.646;23.096;2023-01-28T02:42:36;91436.47;;;1.81;58.05
61963;BME280;47927;42.646;23.096;2023-01-28T02:45:35;91430.88;;;1.43;59.15
61963;BME280;47927;42.646;23.096;2023-01-28T02:48:21;91426.81;;;1.42;59.45
61963;BME280;47927;42.646;23.096;2023-01-28T02:50:54;91430.03;;;1.39;59.53
61963;BME280;47927;42.646;23.096;2023-01-28T02:53:33;91422.75;;;1.41;59.10
61963;BME280;47927;42.646;23.096;2023-01-28T02:56:39;91426.34;;;1.15;60.14
61963;BME280;47927;42.646;23.096;2023-01-28T03:07:25;91435.28;;;0.84;60.90
61963;BME280;47927;42.646;23.096;2023-01-28T03:09:52;91432.06;;;0.87;61.32
61963;BME280;47927;42.646;23.096;2023-01-28T03:12:25;91436.47;;;0.87;61.06
61963;BME280;47927;42.646;23.096;2023-01-28T03:15:16;91429.38;;;0.72;62.00
61963;BME280;47927;42.646;23.096;2023-01-28T03:18:44;91427.25;;;0.53;62.22
61963;BME280;47927;42.646;23.096;2023-01-28T03:21:34;91434.72;;;0.45;62.83
61963;BME280;47927;42.646;23.096;2023-01-28T03:24:25;91446.38;;;0.55;62.79
61963;BME280;47927;42.646;23.096;2023-01-28T03:27:17;91443.03;;;0.76;61.80
61963;BME280;47927;42.646;23.096;2023-01-28T03:30:10;91438.69;;;0.55;62.39
61963;BME280;47927;42.646;23.096;2023-01-28T03:32:58;91435.47;;;0.79;61.97
61963;BME280;47927;42.646;23.096;2023-01-28T03:35:43;91438.59;;;0.52;62.97
61963;BME280;47927;42.646;23.096;2023-01-28T03:38:28;91436.31;;;0.50;62.63
61963;BME280;47927;42.646;23.096;2023-01-28T03:41:00;91441.84;;;-0.02;63.59
61963;BME280;47927;42.646;23.096;2023-01-28T03:43:29;91448.56;;;0.44;63.05
61963;BME280;47927;42.646;23.096;2023-01-28T03:45:55;91446.22;;;0.18;63.25
61963;BME280;47927;42.646;23.096;2023-01-28T03:48:23;91445.84;;;0.29;63.19
61963;BME280;47927;42.646;23.096;2023-01-28T03:51:07;91442.06;;;0.47;62.66
61963;BME280;47927;42.646;23.096;2023-01-28T03:53:33;91441.09;;;0.39;62.65
61963;BME280;47927;42.646;23.096;2023-01-28T03:55:58;91441.06;;;0.60;62.15
61963;BME280;47927;42.646;23.096;2023-01-28T03:58:24;91447.69;;;0.61;62.48
61963;BME280;47927;42.646;23.096;2023-01-28T04:01:08;91454.31;;;0.20;62.89
61963;BME280;47927;42.646;23.096;2023-01-28T04:03:34;91448.50;;;0.11;63.31
61963;BME280;47927;42.646;23.096;2023-01-28T04:06:06;91449.06;;;0.38;62.48
61963;BME280;47927;42.646;23.096;2023-01-28T04:08:47;91455.56;;;0.35;62.90
61963;BME280;47927;42.646;23.096;2023-01-28T04:11:50;91448.84;;;0.31;62.68
61963;BME280;47927;42.646;23.096;2023-01-28T04:14:22;91457.84;;;0.16;63.36
61963;BME280;47927;42.646;23.096;2023-01-28T04:16:52;91457.81;;;-0.05;63.84
61963;BME280;47927;42.646;23.096;2023-01-28T04:19:23;91462.06;;;0.12;63.46
61963;BME280;47927;42.646;23.096;2023-01-28T04:21:50;91463.28;;;-0.15;64.56
61963;BME280;47927;42.646;23.096;2023-01-28T04:24:38;91463.69;;;-0.05;64.15
61963;BME280;47927;42.646;23.096;2023-01-28T04:27:03;91467.47;;;0.19;63.48
61963;BME280;47927;42.646;23.096;2023-01-28T04:29:29;91461.25;;;-0.01;63.56
61963;BME280;47927;42.646;23.096;2023-01-28T04:32:01;91477.69;;;-0.02;63.79
61963;BME280;47927;42.646;23.096;2023-01-28T04:34:55;91470.59;;;-0.26;64.34
61963;BME280;47927;42.646;23.096;2023-01-28T04:37:29;91479.94;;;0.20;63.88
61963;BME280;47927;42.646;23.096;2023-01-28T04:40:08;91482.44;;;0.50;62.46
61963;BME280;47927;42.646;23.096;2023-01-28T04:42:40;91482.81;;;0.19;63.06
61963;BME280;47927;42.646;23.096;2023-01-28T04:45:23;91487.31;;;0.22;63.14
61963;BME280;47927;42.646;23.096;2023-01-28T04:48:07;91484.13;;;0.67;61.90
61963;BME280;47927;42.646;23.096;2023-01-28T04:50:54;91485.16;;;0.54;61.36
61963;BME280;47927;42.646;23.096;2023-01-28T04:53:39;91489.50;;;0.32;62.53
61963;BME280;47927;42.646;23.096;2023-01-28T04:56:07;91496.31;;;0.28;62.32
61963;BME280;47927;42.646;23.096;2023-01-28T04:58:34;91497.56;;;0.22;62.74
61963;BME280;47927;42.646;23.096;2023-01-28T05:01:04;91496.19;;;0.04;63.13
61963;BME280;47927;42.646;23.096;2023-01-28T05:03:30;91500.09;;;0.31;62.81
61963;BME280;47927;42.646;23.096;2023-01-28T05:05:56;91502.56;;;-0.41;64.86
61963;BME280;47927;42.646;23.096;2023-01-28T05:08:51;91503.59;;;-0.42;65.18
61963;BME280;47927;42.646;23.096;2023-01-28T05:11:17;91501.56;;;-0.19;64.92
61963;BME280;47927;42.646;23.096;2023-01-28T05:13:44;91499.03;;;0.02;63.87
61963;BME280;47927;42.646;23.096;2023-01-28T05:16:12;91508.03;;;-0.21;64.34
61963;BME280;47927;42.646;23.096;2023-01-28T05:18:37;91512.13;;;-0.20;65.00
61963;BME280;47927;42.646;23.096;2023-01-28T05:21:14;91520.31;;;-0.06;64.20
61963;BME280;47927;42.646;23.096;2023-01-28T05:23:39;91525.81;;;0.13;63.39
61963;BME280;47927;42.646;23.096;2023-01-28T05:26:05;91522.53;;;0.34;63.00
61963;BME280;47927;42.646;23.096;2023-01-28T05:28:32;91534.16;;;0.52;62.32
61963;BME280;47927;42.646;23.096;2023-01-28T05:31:03;91515.47;;;0.52;61.87
61963;BME280;47927;42.646;23.096;2023-01-28T05:33:28;91528.03;;;0.15;63.14
61963;BME280;47927;42.646;23.096;2023-01-28T05:35:54;91539.34;;;0.14;63.45
61963;BME280;47927;42.646;23.096;2023-01-28T05:38:21;91540.75;;;0.32;63.20
61963;BME280;47927;42.646;23.096;2023-01-28T05:40:46;91548.34;;;0.91;61.91
61963;BME280;47927;42.646;23.096;2023-01-28T05:43:12;91545.16;;;0.95;61.29
61963;BME280;47927;42.646;23.096;2023-01-28T05:45:58;91547.22;;;0.59;61.74
61963;BME280;47927;42.646;23.096;2023-01-28T05:48:50;91550.94;;;1.04;61.05
61963;BME280;47927;42.646;23.096;2023-01-28T05:51:42;91549.78;;;1.01;60.46
61963;BME280;47927;42.646;23.096;2023-01-28T05:54:10;91558.81;;;0.86;60.86
61963;BME280;47927;42.646;23.096;2023-01-28T05:56:35;91554.28;;;1.04;60.58
61963;BME280;47927;42.646;23.096;2023-01-28T05:59:02;91554.25;;;1.58;59.52
61963;BME280;47927;42.646;23.096;2023-01-28T06:01:28;91560.91;;;1.39;59.38
61963;BME280;47927;42.646;23.096;2023-01-28T06:03:54;91560.97;;;1.18;59.62
61963;BME280;47927;42.646;23.096;2023-01-28T06:06:20;91551.66;;;1.46;59.35
61963;BME280;47927;42.646;23.096;2023-01-28T06:08:46;91535.97;;;1.27;58.99
61963;BME280;47927;42.646;23.096;2023-01-28T06:11:15;91569.31;;;1.27;59.56
61963;BME280;47927;42.646;23.096;2023-01-28T06:13:42;91573.19;;;1.00;60.32
61963;BME280;47927;42.646;23.096;2023-01-28T06:16:24;91570.41;;;1.26;60.34
61963;BME280;47927;42.646;23.096;2023-01-28T06:19:12;91581.28;;;1.23;60.00
61963;BME280;47927;42.646;23.096;2023-01-28T06:21:39;91561.16;;;1.12;59.94
61963;BME280;47927;42.646;23.096;2023-01-28T06:24:04;91585.09;;;1.38;59.16
61963;BME280;47927;42.646;23.096;2023-01-28T06:26:30;91586.47;;;1.35;59.39
61963;BME280;47927;42.646;23.096;2023-01-28T06:28:55;91585.69;;;1.55;58.62
61963;BME280;47927;42.646;23.096;2023-01-28T06:31:21;91573.09;;;1.75;57.98
61963;BME280;47927;42.646;23.096;2023-01-28T06:33:47;91594.34;;;1.96;57.69
61963;BME280;47927;42.646;23.096;2023-01-28T06:36:12;91589.19;;;2.09;57.02
61963;BME280;47927;42.646;23.096;2023-01-28T06:38:38;91604.16;;;1.94;57.34
61963;BME280;47927;42.646;23.096;2023-01-28T06:41:03;91608.00;;;1.88;57.45
61963;BME280;47927;42.646;23.096;2023-01-28T06:43:29;91609.66;;;2.17;56.88
61963;BME280;47927;42.646;23.096;2023-01-28T06:45:55;91612.22;;;2.54;56.22
61963;BME280;47927;42.646;23.096;2023-01-28T06:48:22;91603.22;;;2.60;55.65
61963;BME280;47927;42.646;23.096;2023-01-28T06:50:48;91624.44;;;2.69;55.30
61963;BME280;47927;42.646;23.096;2023-01-28T06:53:14;91623.38;;;2.83;54.87
61963;BME280;47927;42.646;23.096;2023-01-28T06:55:40;91626.75;;;2.99;54.85
61963;BME280;47927;42.646;23.096;2023-01-28T06:58:06;91629.53;;;2.94;55.01
61963;BME280;47927;42.646;23.096;2023-01-28T07:00:31;91630.06;;;2.01;56.35
61963;BME280;47927;42.646;23.096;2023-01-28T07:02:57;91634.09;;;2.23;56.45
61963;BME280;47927;42.646;23.096;2023-01-28T07:05:23;91632.81;;;2.30;56.09
61963;BME280;47927;42.646;23.096;2023-01-28T07:07:48;91636.22;;;2.34;56.29
61963;BME280;47927;42.646;23.096;2023-01-28T07:10:14;91632.25;;;2.36;56.07
61963;BME280;47927;42.646;23.096;2023-01-28T07:12:40;91650.41;;;1.61;58.06
61963;BME280;47927;42.646;23.096;2023-01-28T07:15:06;91615.09;;;1.58;57.82
61963;BME280;47927;42.646;23.096;2023-01-28T07:17:32;91649.97;;;1.92;57.75
61963;BME280;47927;42.646;23.096;2023-01-28T07:19:57;91644.81;;;1.92;57.52
61963;BME280;47927;42.646;23.096;2023-01-28T07:22:23;91650.38;;;1.28;58.90
61963;BME280;47927;42.646;23.096;2023-01-28T07:24:48;91655.81;;;1.26;59.38
61963;BME280;47927;42.646;23.096;2023-01-28T07:27:14;91661.81;;;1.51;58.79
61963;BME280;47927;42.646;23.096;2023-01-28T07:29:39;91658.25;;;1.44;59.02
61963;BME280;47927;42.646;23.096;2023-01-28T07:32:05;91656.25;;;1.49;58.80
61963;BME280;47927;42.646;23.096;2023-01-28T07:34:32;91665.22;;;1.22;59.46
61963;BME280;47927;42.646;23.096;2023-01-28T07:36:58;91667.34;;;1.20;59.78
61963;BME280;47927;42.646;23.096;2023-01-28T07:39:23;91667.34;;;1.20;59.80
61963;BME280;47927;42.646;23.096;2023-01-28T07:41:49;91670.97;;;1.61;58.92
61963;BME280;47927;42.646;23.096;2023-01-28T07:44:30;91667.75;;;1.64;58.48
61963;BME280;47927;42.646;23.096;2023-01-28T07:46:56;91674.63;;;1.72;58.40
61963;BME280;47927;42.646;23.096;2023-01-28T07:49:21;91678.88;;;1.35;59.06
61963;BME280;47927;42.646;23.096;2023-01-28T07:51:47;91684.03;;;1.68;58.84
61963;BME280;47927;42.646;23.096;2023-01-28T07:54:14;91677.63;;;1.74;58.45
61963;BME280;47927;42.646;23.096;2023-01-28T07:56:40;91677.38;;;1.34;59.30
61963;BME280;47927;42.646;23.096;2023-01-28T07:59:06;91686.09;;;1.75;58.60
61963;BME280;47927;42.646;23.096;2023-01-28T08:01:31;91681.44;;;1.89;58.49
61963;BME280;47927;42.646;23.096;2023-01-28T08:03:57;91693.28;;;2.15;57.40
61963;BME280;47927;42.646;23.096;2023-01-28T08:06:22;91696.63;;;1.82;58.21
61963;BME280;47927;42.646;23.096;2023-01-28T08:08:48;91690.53;;;1.99;57.86
61963;BME280;47927;42.646;23.096;2023-01-28T08:11:13;91692.81;;;2.00;57.75
61963;BME280;47927;42.646;23.096;2023-01-28T08:13:39;91698.19;;;2.20;57.27
61963;BME280;47927;42.646;23.096;2023-01-28T08:16:05;91700.94;;;2.36;57.17
61963;BME280;47927;42.646;23.096;2023-01-28T08:18:30;91695.38;;;2.58;56.22
61963;BME280;47927;42.646;23.096;2023-01-28T08:20:57;91701.25;;;2.59;56.41
61963;BME280;47927;42.646;23.096;2023-01-28T08:23:23;91702.66;;;2.56;56.07
61963;BME280;47927;42.646;23.096;2023-01-28T08:25:52;91704.72;;;2.87;55.57
61963;BME280;47927;42.646;23.096;2023-01-28T08:28:18;91697.28;;;2.73;55.86
61963;BME280;47927;42.646;23.096;2023-01-28T08:30:44;91707.63;;;2.86;55.74
61963;BME280;47927;42.646;23.096;2023-01-28T08:33:11;91703.50;;;3.09;55.20
61963;BME280;47927;42.646;23.096;2023-01-28T08:35:37;91709.09;;;2.99;55.17
61963;BME280;47927;42.646;23.096;2023-01-28T08:38:05;91709.41;;;2.61;55.91
61963;BME280;47927;42.646;23.096;2023-01-28T08:40:31;91709.94;;;2.66;56.02
61963;BME280;47927;42.646;23.096;2023-01-28T08:42:56;91719.59;;;2.82;55.98
61963;BME280;47927;42.646;23.096;2023-01-28T08:45:24;91712.53;;;2.91;55.43
61963;BME280;47927;42.646;23.096;2023-01-28T08:50:17;91726.66;;;2.60;56.27
61963;BME280;47927;42.646;23.096;2023-01-28T08:52:44;91715.53;;;2.68;56.42
61963;BME280;47927;42.646;23.096;2023-01-28T08:55:11;91716.72;;;3.08;56.25
61963;BME280;47927;42.646;23.096;2023-01-28T08:57:36;91691.09;;;2.99;55.24
61963;BME280;47927;42.646;23.096;2023-01-28T09:00:03;91727.63;;;3.29;54.95
61963;BME280;47927;42.646;23.096;2023-01-28T09:02:29;91725.56;;;3.35;54.79
61963;BME280;47927;42.646;23.096;2023-01-28T09:04:54;91725.13;;;3.33;54.34
61963;BME280;47927;42.646;23.096;2023-01-28T09:07:20;91722.44;;;3.41;54.00
61963;BME280;47927;42.646;23.096;2023-01-28T09:09:45;91717.38;;;3.57;53.44
61963;BME280;47927;42.646;23.096;2023-01-28T09:12:11;91714.94;;;3.77;53.46
61963;BME280;47927;42.646;23.096;2023-01-28T09:14:36;91728.41;;;3.98;53.15
61963;BME280;47927;42.646;23.096;2023-01-28T09:17:03;91721.09;;;4.00;52.54
61963;BME280;47927;42.646;23.096;2023-01-28T09:19:29;91718.16;;;3.86;53.18
61963;BME280;47927;42.646;23.096;2023-01-28T09:21:54;91725.13;;;4.14;52.64
61963;BME280;47927;42.646;23.096;2023-01-28T09:24:20;91709.97;;;4.72;51.58
61963;BME280;47927;42.646;23.096;2023-01-28T09:26:49;91721.63;;;4.50;51.63
61963;BME280;47927;42.646;23.096;2023-01-28T09:29:15;91721.03;;;4.72;51.01
61963;BME280;47927;42.646;23.096;2023-01-28T09:31:41;91720.22;;;4.52;51.56
61963;BME280;47927;42.646;23.096;2023-01-28T09:34:08;91725.13;;;4.89;51.56
61963;BME280;47927;42.646;23.096;2023-01-28T09:36:33;91720.94;;;5.16;50.31
61963;BME280;47927;42.646;23.096;2023-01-28T09:39:00;91723.94;;;5.02;50.13
61963;BME280;47927;42.646;23.096;2023-01-28T09:47:03;91724.78;;;4.59;51.58
61963;BME280;47927;42.646;23.096;2023-01-28T09:49:42;91723.78;;;4.79;51.26
61963;BME280;47927;42.646;23.096;2023-01-28T09:52:13;91719.88;;;4.86;51.29
61963;BME280;47927;42.646;23.096;2023-01-28T09:55:14;91725.53;;;4.75;51.45
61963;BME280;47927;42.646;23.096;2023-01-28T09:57:51;91729.53;;;4.89;52.10
61963;BME280;47927;42.646;23.096;2023-01-28T10:00:20;91724.06;;;5.25;50.39
61963;BME280;47927;42.646;23.096;2023-01-28T10:05:34;91733.13;;;5.70;49.62
61963;BME280;47927;42.646;23.096;2023-01-28T10:11:19;91721.16;;;5.62;49.15
61963;BME280;47927;42.646;23.096;2023-01-28T10:14:00;91715.31;;;5.85;49.31
61963;BME280;47927;42.646;23.096;2023-01-28T10:19:26;91718.41;;;6.10;49.36
61963;BME280;47927;42.646;23.096;2023-01-28T10:22:22;91718.84;;;6.35;49.13
61963;BME280;47927;42.646;23.096;2023-01-28T10:24:51;91716.16;;;6.28;49.08
61963;BME280;47927;42.646;23.096;2023-01-28T10:27:23;91714.03;;;5.94;49.14
61963;BME280;47927;42.646;23.096;2023-01-28T10:29:49;91722.69;;;6.02;49.37
61963;BME280;47927;42.646;23.096;2023-01-28T10:32:25;91719.25;;;5.59;49.74
61963;BME280;47927;42.646;23.096;2023-01-28T10:34:53;91719.63;;;5.42;50.61
61963;BME280;47927;42.646;23.096;2023-01-28T10:37:19;91723.00;;;5.11;51.35
61963;BME280;47927;42.646;23.096;2023-01-28T10:39:45;91715.72;;;4.65;51.89
61963;BME280;47927;42.646;23.096;2023-01-28T10:42:32;91723.69;;;4.60;52.56
61963;BME280;47927;42.646;23.096;2023-01-28T10:45:02;91717.63;;;4.84;52.93
61963;BME280;47927;42.646;23.096;2023-01-28T10:48:06;91723.09;;;5.14;52.14
61963;BME280;47927;42.646;23.096;2023-01-28T10:50:33;91712.06;;;5.68;51.23
61963;BME280;47927;42.646;23.096;2023-01-28T10:53:04;91717.28;;;5.91;50.22
61963;BME280;47927;42.646;23.096;2023-01-28T10:55:55;91717.09;;;5.81;49.91
61963;BME280;47927;42.646;23.096;2023-01-28T10:58:30;91723.34;;;5.60;50.60
61963;BME280;47927;42.646;23.096;2023-01-28T11:01:00;91725.13;;;5.40;50.42
61963;BME280;47927;42.646;23.096;2023-01-28T11:03:27;91704.56;;;5.28;50.71
61963;BME280;47927;42.646;23.096;2023-01-28T11:05:57;91721.44;;;5.06;51.63
61963;BME280;47927;42.646;23.096;2023-01-28T11:08:28;91719.66;;;5.61;51.61
61963;BME280;47927;42.646;23.096;2023-01-28T11:10:55;91721.63;;;5.48;50.22
61963;BME280;47927;42.646;23.096;2023-01-28T11:13:24;91714.66;;;5.17;50.92
61963;BME280;47927;42.646;23.096;2023-01-28T11:15:52;91713.19;;;5.16;51.13
61963;BME280;47927;42.646;23.096;2023-01-28T11:18:30;91714.66;;;5.53;50.16
61963;BME280;47927;42.646;23.096;2023-01-28T11:21:03;91713.72;;;5.41;49.21
61963;BME280;47927;42.646;23.096;2023-01-28T11:23:56;91715.31;;;5.65;50.56
61963;BME280;47927;42.646;23.096;2023-01-28T11:26:27;91713.38;;;6.17;49.56
61963;BME280;47927;42.646;23.096;2023-01-28T11:28:54;91711.78;;;6.12;49.55
61963;BME280;47927;42.646;23.096;2023-01-28T11:31:21;91714.25;;;6.25;47.82
61963;BME280;47927;42.646;23.096;2023-01-28T11:34:06;91702.88;;;6.29;48.77
61963;BME280;47927;42.646;23.096;2023-01-28T11:36:33;91711.88;;;6.39;48.08
61963;BME280;47927;42.646;23.096;2023-01-28T11:39:01;91706.81;;;6.23;48.76
61963;BME280;47927;42.646;23.096;2023-01-28T11:41:35;91705.47;;;5.90;49.21
61963;BME280;47927;42.646;23.096;2023-01-28T11:46:50;91688.59;;;5.77;49.75
61963;BME280;47927;42.646;23.096;2023-01-28T11:49:42;91701.06;;;5.56;49.12
61963;BME280;47927;42.646;23.096;2023-01-28T11:55:22;91703.88;;;5.86;49.11
61963;BME280;47927;42.646;23.096;2023-01-28T12:01:03;91702.25;;;5.78;49.55
61963;BME280;47927;42.646;23.096;2023-01-28T12:04:15;91707.91;;;6.22;48.72
61963;BME280;47927;42.646;23.096;2023-01-28T12:06:54;91710.44;;;5.99;49.04
61963;BME280;47927;42.646;23.096;2023-01-28T12:12:10;91699.09;;;5.49;49.74
61963;BME280;47927;42.646;23.096;2023-01-28T12:18:04;91704.75;;;5.55;49.33
61963;BME280;47927;42.646;23.096;2023-01-28T12:26:11;91703.16;;;4.79;50.07
61963;BME280;47927;42.646;23.096;2023-01-28T12:42:23;91714.44;;;5.77;47.91
61963;BME280;47927;42.646;23.096;2023-01-28T12:44:58;91714.84;;;5.79;47.90
61963;BME280;47927;42.646;23.096;2023-01-28T12:47:34;91720.00;;;5.24;48.30
61963;BME280;47927;42.646;23.096;2023-01-28T12:52:39;91734.88;;;4.64;50.03
61963;BME280;47927;42.646;23.096;2023-01-28T12:55:45;91729.50;;;4.25;51.26
61963;BME280;47927;42.646;23.096;2023-01-28T12:58:24;91730.13;;;4.22;50.93
61963;BME280;47927;42.646;23.096;2023-01-28T13:01:00;91715.44;;;4.54;50.61
61963;BME280;47927;42.646;23.096;2023-01-28T13:03:42;91724.53;;;5.12;49.39
61963;BME280;47927;42.646;23.096;2023-01-28T13:06:32;91737.44;;;5.12;48.74
61963;BME280;47927;42.646;23.096;2023-01-28T13:09:10;91746.25;;;4.63;50.16
61963;BME280;47927;42.646;23.096;2023-01-28T13:11:38;91708.94;;;4.29;50.65
61963;BME280;47927;42.646;23.096;2023-01-28T13:14:04;91739.94;;;4.92;50.11
61963;BME280;47927;42.646;23.096;2023-01-28T13:16:32;91728.75;;;5.20;49.24
61963;BME280;47927;42.646;23.096;2023-01-28T13:19:24;91744.06;;;5.29;48.65
61963;BME280;47927;42.646;23.096;2023-01-28T13:22:09;91749.25;;;4.81;49.77
61963;BME280;47927;42.646;23.096;2023-01-28T13:24:35;91748.34;;;5.05;49.51
61963;BME280;47927;42.646;23.096;2023-01-28T13:27:11;91757.91;;;5.05;49.68
61963;BME280;47927;42.646;23.096;2023-01-28T13:29:37;91763.06;;;5.36;49.21
61963;BME280;47927;42.646;23.096;2023-01-28T13:32:27;91761.47;;;5.47;48.10
61963;BME280;47927;42.646;23.096;2023-01-28T13:35:00;91770.53;;;5.77;47.85
61963;BME280;47927;42.646;23.096;2023-01-28T13:37:42;91765.47;;;5.80;47.63
61963;BME280;47927;42.646;23.096;2023-01-28T13:42:38;91766.34;;;5.53;48.51
61963;BME280;47927;42.646;23.096;2023-01-28T13:47:46;91781.81;;;5.33;48.61
61963;BME280;47927;42.646;23.096;2023-01-28T13:50:23;91779.00;;;5.07;49.33
61963;BME280;47927;42.646;23.096;2023-01-28T13:53:38;91779.97;;;5.34;48.52
61963;BME280;47927;42.646;23.096;2023-01-28T13:55:45;91784.81;;;4.88;49.30
61963;BME280;47927;42.646;23.096;2023-01-28T14:01:37;91786.19;;;4.69;49.50
61963;BME280;47927;42.646;23.096;2023-01-28T14:04:56;91794.50;;;4.47;50.51
61963;BME280;47927;42.646;23.096;2023-01-28T14:10:06;91799.19;;;4.57;49.95
61963;BME280;47927;42.646;23.096;2023-01-28T14:18:26;91806.59;;;4.30;50.63
61963;BME280;47927;42.646;23.096;2023-01-28T14:20:55;91809.03;;;4.39;50.88
61963;BME280;47927;42.646;23.096;2023-01-28T14:23:25;91815.81;;;4.60;50.25
61963;BME280;47927;42.646;23.096;2023-01-28T14:28:37;91815.84;;;4.75;50.15
61963;BME280;47927;42.646;23.096;2023-01-28T14:31:25;91827.03;;;4.79;49.87
61963;BME280;47927;42.646;23.096;2023-01-28T14:33:51;91826.84;;;4.72;50.18
61963;BME280;47927;42.646;23.096;2023-01-28T14:36:17;91829.59;;;4.79;50.23
61963;BME280;47927;42.646;23.096;2023-01-28T14:38:44;91807.94;;;4.68;50.12
61963;BME280;47927;42.646;23.096;2023-01-28T14:41:22;91823.94;;;4.90;49.08
61963;BME280;47927;42.646;23.096;2023-01-28T14:43:55;91812.59;;;4.78;49.55
61963;BME280;47927;42.646;23.096;2023-01-28T14:46:33;91829.19;;;4.93;49.91
61963;BME280;47927;42.646;23.096;2023-01-28T14:51:48;91825.91;;;4.65;50.32
61963;BME280;47927;42.646;23.096;2023-01-28T15:02:21;91839.09;;;4.47;50.87
61963;BME280;47927;42.646;23.096;2023-01-28T15:04:48;91842.47;;;4.36;50.81
61963;BME280;47927;42.646;23.096;2023-01-28T15:07:19;91849.75;;;4.05;51.90
61963;BME280;47927;42.646;23.096;2023-01-28T15:09:47;91849.38;;;3.67;52.31